Thousand Island Park, New York
Current Conditions -  °F | °C
As of 7:56 AM on Friday 19 Dec 2014 (Local Time) from KART Reporting Station
Light Snow Light Snow  
Wind Chill: 17°   Ceiling: 700
Heat Index: 25°   Visibility: 9mi
Dew Point: 19°   Wind: 7mph
Humidity: 78%   Direction: 300°WNW
Pressure: 30.11"   Gusts: NA
Location:  44.29°N, 76.03°W
Report Text: KART 191256Z AUTO 30006KT 9SM -SN OVC007 M04/M07 A3011 RMK AO2 SNB54 CIG 005V010 SLP202 P0000 I1000 T10391072
Loading
Personal Weather Stations






























Interactive Weather Map New forecast layout! Learn more

10-Day Weather Forecast

Advertisements
Track Severe Weather on mobile